createdAt,value
2023-04-13T00:02:00.678Z,101020
2023-04-13T00:03:00.998Z,101010
2023-04-13T00:04:01.060Z,101010
2023-04-13T00:05:00.584Z,101010
2023-04-13T00:06:00.527Z,101000
2023-04-13T00:07:00.514Z,101000
2023-04-13T00:08:00.528Z,101000
2023-04-13T00:09:00.536Z,101010
2023-04-13T00:10:00.508Z,101010
2023-04-13T00:11:00.513Z,101010
2023-04-13T00:12:00.520Z,101010
2023-04-13T00:13:01.559Z,101010
2023-04-13T00:14:00.703Z,101010
2023-04-13T00:15:00.641Z,101000
2023-04-13T00:16:00.508Z,101000
2023-04-13T00:17:00.653Z,100990
2023-04-13T00:18:00.609Z,100990
2023-04-13T00:19:00.521Z,100980
2023-04-13T00:20:00.792Z,100980
2023-04-13T00:21:00.519Z,100980
2023-04-13T00:22:00.503Z,100980
2023-04-13T00:23:00.533Z,100990
2023-04-13T00:24:00.827Z,101000
2023-04-13T00:25:00.507Z,101010
2023-04-13T00:26:00.525Z,101000
2023-04-13T00:27:00.495Z,101000
2023-04-13T00:28:00.503Z,101000
2023-04-13T00:29:00.510Z,100990
2023-04-13T00:30:00.507Z,100980
2023-04-13T00:31:00.520Z,100980
2023-04-13T00:32:00.524Z,100980
2023-04-13T00:33:00.918Z,100980
2023-04-13T00:34:00.516Z,100970
2023-04-13T00:35:00.801Z,100970
2023-04-13T00:36:00.534Z,100980
2023-04-13T00:37:00.525Z,100980
2023-04-13T00:38:00.614Z,100990
2023-04-13T00:39:00.541Z,100990
2023-04-13T00:40:00.523Z,100990
2023-04-13T00:41:00.506Z,100990
2023-04-13T00:42:00.561Z,100990
2023-04-13T00:43:00.540Z,100990
2023-04-13T00:44:00.633Z,101000
2023-04-13T00:45:00.652Z,101000
2023-04-13T00:46:00.818Z,101000
2023-04-13T00:47:02.082Z,101010
2023-04-13T00:48:00.648Z,101000
2023-04-13T00:49:00.551Z,101010
2023-04-13T00:50:01.364Z,101010
2023-04-13T00:51:01.085Z,101000
2023-04-13T00:52:02.001Z,101000
2023-04-13T00:53:01.156Z,101000
2023-04-13T00:54:00.587Z,100990
2023-04-13T00:55:00.644Z,101000
2023-04-13T00:56:00.856Z,101000
2023-04-13T00:57:00.658Z,101000
2023-04-13T00:58:00.544Z,101000
2023-04-13T00:59:00.594Z,101000
2023-04-13T01:00:02.469Z,101010
2023-04-13T01:01:01.152Z,101010
2023-04-13T01:02:00.609Z,101010
2023-04-13T01:03:00.645Z,101010
2023-04-13T01:04:00.766Z,101010
2023-04-13T01:05:00.573Z,101010
2023-04-13T01:06:00.492Z,101020
2023-04-13T01:07:01.501Z,101020
2023-04-13T01:08:07.246Z,101020
2023-04-13T01:09:05.517Z,101020
2023-04-13T01:10:05.898Z,101020
2023-04-13T01:11:01.595Z,101030
2023-04-13T01:12:10.406Z,101030
2023-04-13T01:13:00.541Z,101030
2023-04-13T01:14:04.461Z,101020
2023-04-13T01:15:04.948Z,101020
2023-04-13T01:16:03.369Z,101010
2023-04-13T01:17:02.847Z,101010
2023-04-13T01:18:01.001Z,101000
2023-04-13T01:19:02.524Z,101000
2023-04-13T01:20:02.876Z,101000
2023-04-13T01:21:00.856Z,101010
2023-04-13T01:22:01.322Z,101010
2023-04-13T01:23:03.374Z,101010
2023-04-13T01:24:10.373Z,101010
2023-04-13T01:25:10.377Z,101010
2023-04-13T01:26:01.578Z,101010
2023-04-13T01:27:03.852Z,101000
2023-04-13T01:28:02.875Z,101000
2023-04-13T01:29:01.445Z,101000
2023-04-13T01:30:01.083Z,101000
2023-04-13T01:31:01.354Z,101000
2023-04-13T01:32:01.257Z,101000
2023-04-13T01:33:00.809Z,101000
2023-04-13T01:34:00.772Z,100990
2023-04-13T01:35:00.634Z,100990
2023-04-13T01:36:01.054Z,100990
2023-04-13T01:37:00.533Z,100990
2023-04-13T01:38:00.504Z,100990
2023-04-13T01:39:00.487Z,101000
2023-04-13T01:40:00.509Z,101000
2023-04-13T01:41:00.599Z,101000
2023-04-13T01:42:00.520Z,101010
2023-04-13T01:43:00.539Z,101010
2023-04-13T01:44:00.841Z,101010
2023-04-13T01:45:00.668Z,101010
2023-04-13T01:46:03.550Z,101010
2023-04-13T01:47:10.389Z,101010
2023-04-13T01:48:10.424Z,101000
2023-04-13T01:49:01.954Z,100990
2023-04-13T01:50:07.820Z,100990
2023-04-13T01:51:04.686Z,100990
2023-04-13T01:52:00.929Z,100980
2023-04-13T01:53:03.130Z,100980
2023-04-13T01:54:03.330Z,100980
2023-04-13T01:55:01.228Z,100980
2023-04-13T01:56:01.900Z,100980
2023-04-13T01:57:01.020Z,100980
2023-04-13T01:58:00.798Z,100990
2023-04-13T01:59:00.768Z,101000
2023-04-13T02:00:00.502Z,100990
2023-04-13T02:01:00.769Z,100990
2023-04-13T02:02:00.586Z,100990
2023-04-13T02:03:04.778Z,100990
2023-04-13T02:04:01.856Z,100990
2023-04-13T02:05:00.525Z,100990
2023-04-13T02:06:01.043Z,100990
2023-04-13T02:07:00.594Z,100990
2023-04-13T02:08:00.519Z,100980
2023-04-13T02:09:00.516Z,100980
2023-04-13T02:10:00.506Z,100980
2023-04-13T02:11:00.484Z,100980
2023-04-13T02:12:00.470Z,100980
2023-04-13T02:13:00.807Z,100980
2023-04-13T02:14:00.721Z,100990
2023-04-13T02:15:00.564Z,100990
2023-04-13T02:16:00.923Z,101000
2023-04-13T02:17:00.518Z,101000
2023-04-13T02:18:00.713Z,101010
2023-04-13T02:19:00.559Z,101010
2023-04-13T02:20:01.560Z,101010
2023-04-13T02:21:01.771Z,101010
2023-04-13T02:22:00.532Z,101010
2023-04-13T02:23:00.512Z,101020
2023-04-13T02:24:00.833Z,101020
2023-04-13T02:25:00.590Z,101020
2023-04-13T02:26:00.661Z,101020
2023-04-13T02:27:00.538Z,101010
2023-04-13T02:28:00.586Z,101010
2023-04-13T02:29:00.508Z,101010
2023-04-13T02:30:01.012Z,101010
2023-04-13T02:31:00.599Z,101010
2023-04-13T02:32:00.551Z,101000
2023-04-13T02:33:00.551Z,101000
2023-04-13T02:34:00.866Z,101000
2023-04-13T02:35:00.730Z,101000
2023-04-13T02:36:01.558Z,101010
2023-04-13T02:37:00.867Z,101010
2023-04-13T02:38:00.516Z,101010
2023-04-13T02:39:00.537Z,101010
2023-04-13T02:40:00.505Z,101020
2023-04-13T02:41:00.594Z,101030
2023-04-13T02:42:00.576Z,101030
2023-04-13T02:43:00.694Z,101030
2023-04-13T02:44:00.770Z,101040
2023-04-13T02:45:00.538Z,101040
2023-04-13T02:46:00.550Z,101040
2023-04-13T02:47:00.709Z,101040
2023-04-13T02:48:00.532Z,101040
2023-04-13T02:49:00.525Z,101050
2023-04-13T02:50:00.613Z,101050
2023-04-13T02:51:00.533Z,101050
2023-04-13T02:52:00.547Z,101050
2023-04-13T02:53:00.516Z,101060
2023-04-13T02:54:01.233Z,101060
2023-04-13T02:55:00.563Z,101060
2023-04-13T02:56:00.564Z,101060
2023-04-13T02:57:00.519Z,101060
2023-04-13T02:58:00.593Z,101060
2023-04-13T02:59:00.516Z,101070
2023-04-13T03:00:00.510Z,101060
2023-04-13T03:01:00.577Z,101060
2023-04-13T03:02:00.661Z,101060
2023-04-13T03:03:00.899Z,101060
2023-04-13T03:04:01.096Z,101060
2023-04-13T03:05:00.783Z,101060
2023-04-13T03:06:00.524Z,101060
2023-04-13T03:07:00.507Z,101060
2023-04-13T03:08:00.493Z,101060
2023-04-13T03:09:00.583Z,101060
2023-04-13T03:10:01.366Z,101070
2023-04-13T03:11:00.503Z,101060
2023-04-13T03:12:00.543Z,101060
2023-04-13T03:13:00.514Z,101060
2023-04-13T03:14:00.762Z,101060
2023-04-13T03:15:00.539Z,101060
2023-04-13T03:16:00.740Z,101060
2023-04-13T03:17:00.562Z,101060
2023-04-13T03:18:00.654Z,101060
2023-04-13T03:19:00.500Z,101060
2023-04-13T03:20:00.607Z,101060
2023-04-13T03:21:00.513Z,101060
2023-04-13T03:22:00.515Z,101060
2023-04-13T03:23:00.529Z,101060
2023-04-13T03:24:00.683Z,101060
2023-04-13T03:25:00.504Z,101070
2023-04-13T03:26:00.517Z,101060
2023-04-13T03:27:00.502Z,101070
2023-04-13T03:28:00.566Z,101070
2023-04-13T03:29:00.530Z,101070
2023-04-13T03:30:00.812Z,101070
2023-04-13T03:31:00.583Z,101070
2023-04-13T03:32:00.505Z,101070
2023-04-13T03:33:00.595Z,101070
2023-04-13T03:34:00.919Z,101070
2023-04-13T03:35:00.528Z,101070
2023-04-13T03:36:00.554Z,101070
2023-04-13T03:37:00.490Z,101070
2023-04-13T03:38:00.532Z,101070
2023-04-13T03:39:00.490Z,101070
2023-04-13T03:40:00.524Z,101070
2023-04-13T03:41:00.545Z,101070
2023-04-13T03:42:00.605Z,101070
2023-04-13T03:43:00.537Z,101070
2023-04-13T03:44:00.842Z,101080
2023-04-13T03:45:00.609Z,101070
2023-04-13T03:46:00.655Z,101070
2023-04-13T03:47:00.539Z,101070
2023-04-13T03:48:00.562Z,101080
2023-04-13T03:49:00.552Z,101080
2023-04-13T03:50:00.526Z,101080
2023-04-13T03:51:00.537Z,101080
2023-04-13T03:52:00.531Z,101080
2023-04-13T03:53:00.680Z,101080
2023-04-13T03:54:01.005Z,101080
2023-04-13T03:55:00.627Z,101080
2023-04-13T03:56:00.538Z,101090
2023-04-13T03:57:00.776Z,101090
2023-04-13T03:58:00.629Z,101090
2023-04-13T03:59:00.560Z,101090
2023-04-13T04:00:00.616Z,101100
2023-04-13T04:01:00.485Z,101100
2023-04-13T04:02:00.581Z,101100
2023-04-13T04:03:00.666Z,101100
2023-04-13T04:04:01.077Z,101100
2023-04-13T04:05:00.546Z,101100
2023-04-13T04:06:00.502Z,101110
2023-04-13T04:07:00.506Z,101110
2023-04-13T04:08:00.536Z,101110
2023-04-13T04:09:00.571Z,101110
2023-04-13T04:10:00.552Z,101110
2023-04-13T04:11:00.529Z,101120
2023-04-13T04:12:00.532Z,101120
2023-04-13T04:13:00.508Z,101120
2023-04-13T04:14:00.926Z,101120
2023-04-13T04:15:00.630Z,101120
2023-04-13T04:16:00.548Z,101120
2023-04-13T04:17:00.494Z,101110
2023-04-13T04:18:00.655Z,101110
2023-04-13T04:19:00.500Z,101110
2023-04-13T04:20:00.539Z,101100
2023-04-13T04:21:00.516Z,101100
2023-04-13T04:22:01.169Z,101110
2023-04-13T04:23:00.509Z,101100
2023-04-13T04:24:01.239Z,101100
2023-04-13T04:25:00.536Z,101090
2023-04-13T04:26:00.595Z,101100
2023-04-13T04:27:00.569Z,101090
2023-04-13T04:28:00.557Z,101090
2023-04-13T04:29:00.539Z,101090
2023-04-13T04:30:00.488Z,101090
2023-04-13T04:31:00.512Z,101090
2023-04-13T04:32:01.236Z,101100
2023-04-13T04:33:00.536Z,101100
2023-04-13T04:34:00.865Z,101090
2023-04-13T04:35:00.510Z,101100
2023-04-13T04:36:00.531Z,101100
2023-04-13T04:37:03.455Z,101100
2023-04-13T04:38:01.081Z,101100
2023-04-13T04:39:00.544Z,101090
2023-04-13T04:40:00.536Z,101100
2023-04-13T04:41:00.508Z,101100
2023-04-13T04:42:00.497Z,101100
2023-04-13T04:43:00.930Z,101100
2023-04-13T04:44:00.718Z,101110
2023-04-13T04:45:00.508Z,101110
2023-04-13T04:46:00.617Z,101110
2023-04-13T04:47:00.483Z,101100
2023-04-13T04:48:00.650Z,101110
2023-04-13T04:49:00.676Z,101110
2023-04-13T04:50:00.496Z,101110
2023-04-13T04:51:00.527Z,101110
2023-04-13T04:52:00.479Z,101120
2023-04-13T04:53:00.500Z,101110
2023-04-13T04:54:00.949Z,101120
2023-04-13T04:55:00.524Z,101110
2023-04-13T04:56:00.523Z,101120
2023-04-13T04:57:00.544Z,101120
2023-04-13T04:58:00.556Z,101120
2023-04-13T04:59:00.978Z,101120
2023-04-13T05:00:01.317Z,101120
2023-04-13T05:01:00.537Z,101120
2023-04-13T05:02:00.593Z,101120
2023-04-13T05:03:00.650Z,101130
2023-04-13T05:04:00.839Z,101130
2023-04-13T05:05:00.537Z,101130
2023-04-13T05:06:00.513Z,101130
2023-04-13T05:07:00.566Z,101130
2023-04-13T05:08:00.532Z,101130
2023-04-13T05:09:02.248Z,101130
2023-04-13T05:10:00.505Z,101130
2023-04-13T05:11:00.537Z,101130
2023-04-13T05:12:00.495Z,101140
2023-04-13T05:13:00.513Z,101140
2023-04-13T05:14:01.120Z,101150
2023-04-13T05:15:00.667Z,101140
2023-04-13T05:16:00.632Z,101140
2023-04-13T05:17:00.536Z,101150
2023-04-13T05:18:00.551Z,101150
2023-04-13T05:19:00.751Z,101150
2023-04-13T05:20:01.121Z,101150
2023-04-13T05:21:00.506Z,101150
2023-04-13T05:22:00.520Z,101160
2023-04-13T05:23:00.608Z,101160
2023-04-13T05:24:00.517Z,101160
2023-04-13T05:25:00.560Z,101160
2023-04-13T05:26:00.549Z,101160
2023-04-13T05:27:00.512Z,101160
2023-04-13T05:28:00.539Z,101160
2023-04-13T05:29:00.834Z,101160
2023-04-13T05:30:00.544Z,101160
2023-04-13T05:31:01.515Z,101170
2023-04-13T05:32:01.171Z,101170
2023-04-13T05:33:00.582Z,101170
2023-04-13T05:34:00.609Z,101170
2023-04-13T05:35:00.668Z,101170
2023-04-13T05:36:00.852Z,101170
2023-04-13T05:37:00.554Z,101170
2023-04-13T05:38:00.504Z,101170
2023-04-13T05:39:01.270Z,101180
2023-04-13T05:40:00.720Z,101190
2023-04-13T05:41:00.523Z,101190
2023-04-13T05:42:00.755Z,101180
2023-04-13T05:43:00.530Z,101190
2023-04-13T05:44:00.515Z,101190
2023-04-13T05:45:00.519Z,101190
2023-04-13T05:46:00.571Z,101190
2023-04-13T05:47:00.507Z,101190
2023-04-13T05:48:00.570Z,101190
2023-04-13T05:49:00.802Z,101200
2023-04-13T05:50:00.509Z,101200
2023-04-13T05:51:00.520Z,101200
2023-04-13T05:52:00.500Z,101200
2023-04-13T05:53:00.561Z,101200
2023-04-13T05:54:00.968Z,101200
2023-04-13T05:55:00.523Z,101210
2023-04-13T05:56:00.500Z,101220
2023-04-13T05:57:00.508Z,101220
2023-04-13T05:58:00.521Z,101220
2023-04-13T05:59:00.779Z,101220
2023-04-13T06:00:00.557Z,101220
2023-04-13T06:01:00.531Z,101230
2023-04-13T06:02:00.588Z,101220
2023-04-13T06:03:00.699Z,101230
2023-04-13T06:04:00.865Z,101230
2023-04-13T06:05:00.692Z,101230
2023-04-13T06:06:00.569Z,101240
2023-04-13T06:07:00.573Z,101240
2023-04-13T06:08:00.552Z,101240
2023-04-13T06:09:00.872Z,101240
2023-04-13T06:10:00.840Z,101240
2023-04-13T06:11:00.726Z,101240
2023-04-13T06:12:00.518Z,101240
2023-04-13T06:13:00.499Z,101230
2023-04-13T06:14:00.514Z,101230
2023-04-13T06:15:00.563Z,101230
2023-04-13T06:16:00.705Z,101240
2023-04-13T06:17:00.518Z,101240
2023-04-13T06:18:00.534Z,101230
2023-04-13T06:19:00.732Z,101230
2023-04-13T06:20:00.793Z,101230
2023-04-13T06:21:00.494Z,101230
2023-04-13T06:22:00.489Z,101230
2023-04-13T06:23:00.546Z,101230
2023-04-13T06:24:00.521Z,101230
2023-04-13T06:25:00.545Z,101230
2023-04-13T06:26:00.730Z,101230
2023-04-13T06:27:00.588Z,101220
2023-04-13T06:28:01.116Z,101220
2023-04-13T06:29:00.872Z,101230
2023-04-13T06:30:00.507Z,101230
2023-04-13T06:31:00.585Z,101230
2023-04-13T06:32:00.532Z,101230
2023-04-13T06:33:00.605Z,101230
2023-04-13T06:34:00.485Z,101220
2023-04-13T06:35:00.604Z,101230
2023-04-13T06:36:01.068Z,101230
2023-04-13T06:37:00.989Z,101230
2023-04-13T06:38:00.774Z,101230
2023-04-13T06:39:00.841Z,101220
2023-04-13T06:40:00.936Z,101230
2023-04-13T06:41:01.096Z,101230
2023-04-13T06:42:00.500Z,101220
2023-04-13T06:43:00.519Z,101230
2023-04-13T06:44:00.491Z,101230
2023-04-13T06:45:00.552Z,101220
2023-04-13T06:46:00.708Z,101230
2023-04-13T06:47:00.523Z,101230
2023-04-13T06:48:00.709Z,101230
2023-04-13T06:49:00.728Z,101240
2023-04-13T06:50:02.496Z,101230
2023-04-13T06:51:00.534Z,101240
2023-04-13T06:52:00.517Z,101240
2023-04-13T06:53:00.751Z,101240
2023-04-13T06:54:00.514Z,101230
2023-04-13T06:55:00.745Z,101240
2023-04-13T06:56:00.493Z,101240
2023-04-13T06:57:00.497Z,101240
2023-04-13T06:58:00.469Z,101240
2023-04-13T06:59:02.281Z,101230
2023-04-13T07:00:00.510Z,101240
2023-04-13T07:01:00.608Z,101240
2023-04-13T07:02:00.705Z,101240
2023-04-13T07:03:00.858Z,101250
2023-04-13T07:04:00.560Z,101250
2023-04-13T07:05:00.633Z,101250
2023-04-13T07:06:00.499Z,101260
2023-04-13T07:07:00.491Z,101250
2023-04-13T07:08:00.531Z,101250
2023-04-13T07:09:00.890Z,101250
2023-04-13T07:10:00.856Z,101250
2023-04-13T07:11:00.745Z,101250
2023-04-13T07:12:04.113Z,101230
2023-04-13T07:13:00.496Z,101250
2023-04-13T07:14:00.508Z,101250
2023-04-13T07:15:00.539Z,101240
2023-04-13T07:16:00.564Z,101240
2023-04-13T07:17:00.753Z,101240
2023-04-13T07:18:00.580Z,101250
2023-04-13T07:19:00.793Z,101240
2023-04-13T07:20:00.497Z,101240
2023-04-13T07:21:00.706Z,101240
2023-04-13T07:22:01.142Z,101230
2023-04-13T07:23:00.554Z,101240
2023-04-13T07:24:00.565Z,101240
2023-04-13T07:25:00.701Z,101240
2023-04-13T07:26:00.516Z,101240
2023-04-13T07:27:00.529Z,101240
2023-04-13T07:28:00.605Z,101230
2023-04-13T07:29:00.703Z,101230
2023-04-13T07:30:00.504Z,101230
2023-04-13T07:31:00.547Z,101230
2023-04-13T07:32:01.633Z,101230
2023-04-13T07:33:00.632Z,101230
2023-04-13T07:34:00.505Z,101220
2023-04-13T07:35:00.528Z,101220
2023-04-13T07:36:00.506Z,101220
2023-04-13T07:37:00.524Z,101220
2023-04-13T07:38:00.512Z,101220
2023-04-13T07:39:00.833Z,101220
2023-04-13T07:40:00.605Z,101220
2023-04-13T07:41:00.565Z,101220
2023-04-13T07:42:00.687Z,101210
2023-04-13T07:43:00.660Z,101210
2023-04-13T07:44:01.010Z,101210
2023-04-13T07:45:00.572Z,101210
2023-04-13T07:46:06.902Z,101210
2023-04-13T07:47:00.615Z,101220
2023-04-13T07:48:00.618Z,101210
2023-04-13T07:49:00.718Z,101210
2023-04-13T07:50:00.559Z,101210
2023-04-13T07:51:00.529Z,101210
2023-04-13T07:52:00.529Z,101210
2023-04-13T07:53:00.666Z,101210
2023-04-13T07:54:01.009Z,101200
2023-04-13T07:55:01.486Z,101200
2023-04-13T07:56:00.506Z,101200
2023-04-13T07:57:00.556Z,101200
2023-04-13T07:58:00.537Z,101200
2023-04-13T07:59:01.202Z,101200
2023-04-13T08:00:02.858Z,101200
2023-04-13T08:01:00.959Z,101200
2023-04-13T08:02:00.559Z,101190
2023-04-13T08:03:00.729Z,101200
2023-04-13T08:04:00.737Z,101200
2023-04-13T08:05:01.492Z,101200
2023-04-13T08:06:00.505Z,101200
2023-04-13T08:07:02.375Z,101210
2023-04-13T08:08:00.508Z,101210
2023-04-13T08:09:00.763Z,101200
2023-04-13T08:10:00.543Z,101210
2023-04-13T08:11:00.502Z,101200
2023-04-13T08:12:01.155Z,101200
2023-04-13T08:13:00.526Z,101200
2023-04-13T08:14:00.526Z,101200
2023-04-13T08:15:00.614Z,101200
2023-04-13T08:16:00.601Z,101200
2023-04-13T08:17:03.230Z,101210
2023-04-13T08:18:00.599Z,101200
2023-04-13T08:19:00.974Z,101200
2023-04-13T08:20:00.539Z,101200
2023-04-13T08:21:00.519Z,101190
2023-04-13T08:22:00.564Z,101200
2023-04-13T08:23:00.546Z,101200
2023-04-13T08:24:00.558Z,101200
2023-04-13T08:25:00.513Z,101200
2023-04-13T08:26:00.561Z,101200
2023-04-13T08:27:00.542Z,101190
2023-04-13T08:28:00.661Z,101190
2023-04-13T08:29:00.786Z,101190
2023-04-13T08:30:00.523Z,101180
2023-04-13T08:31:00.522Z,101190
2023-04-13T08:32:00.586Z,101190
2023-04-13T08:33:00.764Z,101180
2023-04-13T08:34:00.506Z,101180
2023-04-13T08:35:00.533Z,101180
2023-04-13T08:36:00.508Z,101190
2023-04-13T08:37:00.574Z,101190
2023-04-13T08:38:01.638Z,101180
2023-04-13T08:39:00.932Z,101190
2023-04-13T08:40:00.858Z,101190
2023-04-13T08:41:02.045Z,101190
2023-04-13T08:42:00.502Z,101180
2023-04-13T08:43:00.565Z,101180
2023-04-13T08:44:00.762Z,101180
2023-04-13T08:45:02.182Z,101180
2023-04-13T08:46:02.294Z,101180
2023-04-13T08:47:00.541Z,101180
2023-04-13T08:48:00.772Z,101180
2023-04-13T08:49:02.105Z,101170
2023-04-13T08:50:00.960Z,101180
2023-04-13T08:51:03.939Z,101170
2023-04-13T08:52:03.678Z,101170
2023-04-13T08:53:00.690Z,101170
2023-04-13T08:54:00.504Z,101160
2023-04-13T08:55:00.766Z,101170
2023-04-13T08:56:00.712Z,101160
2023-04-13T08:57:01.204Z,101160
2023-04-13T08:58:02.073Z,101160
2023-04-13T08:59:03.130Z,101170
2023-04-13T09:00:00.558Z,101160
2023-04-13T09:01:00.832Z,101170
2023-04-13T09:02:01.186Z,101160
2023-04-13T09:03:05.377Z,101160
2023-04-13T09:04:04.026Z,101160
2023-04-13T09:05:02.645Z,101160
2023-04-13T09:06:03.740Z,101160
2023-04-13T09:07:01.782Z,101150
2023-04-13T09:08:00.888Z,101150
2023-04-13T09:09:03.193Z,101160
2023-04-13T09:10:01.145Z,101150
2023-04-13T09:11:00.906Z,101150
2023-04-13T09:12:00.507Z,101150
2023-04-13T09:13:00.494Z,101150
2023-04-13T09:14:00.920Z,101150
2023-04-13T09:15:00.906Z,101150
2023-04-13T09:16:00.510Z,101150
2023-04-13T09:17:00.711Z,101140
2023-04-13T09:18:08.898Z,101140
2023-04-13T09:19:00.888Z,101140
2023-04-13T09:20:10.405Z,101150
2023-04-13T09:21:00.546Z,101150
2023-04-13T09:22:10.397Z,101160
2023-04-13T09:23:10.391Z,101160
2023-04-13T09:24:00.804Z,101160
2023-04-13T09:25:00.533Z,101160
2023-04-13T09:26:07.886Z,101160
2023-04-13T09:27:01.344Z,101160
2023-04-13T09:28:00.542Z,101160
2023-04-13T09:29:02.190Z,101160
2023-04-13T09:30:00.525Z,101160
2023-04-13T09:31:01.195Z,101170
2023-04-13T09:32:00.659Z,101160
2023-04-13T09:33:04.524Z,101170
2023-04-13T09:34:00.693Z,101160
2023-04-13T09:35:01.893Z,101170
2023-04-13T09:36:08.300Z,101170
2023-04-13T09:37:10.381Z,101170
2023-04-13T09:38:00.560Z,101170
2023-04-13T09:39:00.708Z,101170
2023-04-13T09:40:08.440Z,101170
2023-04-13T09:41:00.530Z,101180
2023-04-13T09:42:08.373Z,101180
2023-04-13T09:43:01.538Z,101180
2023-04-13T09:44:02.403Z,101170
2023-04-13T09:45:00.521Z,101170
2023-04-13T09:46:00.623Z,101170
2023-04-13T09:47:01.867Z,101180
2023-04-13T09:48:00.975Z,101170
2023-04-13T09:49:02.646Z,101170
2023-04-13T09:50:01.506Z,101170
2023-04-13T09:51:01.253Z,101170
2023-04-13T09:52:00.534Z,101170
2023-04-13T09:53:01.336Z,101170
2023-04-13T09:54:00.591Z,101160
2023-04-13T09:55:00.544Z,101170
2023-04-13T09:56:00.521Z,101170
2023-04-13T09:57:00.540Z,101170
2023-04-13T09:58:10.387Z,101170
2023-04-13T09:59:00.822Z,101170
2023-04-13T10:00:00.538Z,101170
2023-04-13T10:01:00.604Z,101170
2023-04-13T10:02:02.682Z,101170
2023-04-13T10:03:01.299Z,101170
2023-04-13T10:04:02.877Z,101160
2023-04-13T10:05:00.551Z,101170
2023-04-13T10:06:00.877Z,101170
2023-04-13T10:07:00.552Z,101160
2023-04-13T10:08:00.610Z,101160
2023-04-13T10:09:00.891Z,101160
2023-04-13T10:10:00.530Z,101160
2023-04-13T10:11:01.004Z,101160
2023-04-13T10:12:00.719Z,101160
2023-04-13T10:13:02.196Z,101160
2023-04-13T10:14:00.923Z,101160
2023-04-13T10:15:09.101Z,101160
2023-04-13T10:16:03.586Z,101160
2023-04-13T10:17:00.488Z,101150
2023-04-13T10:18:11.300Z,101150
2023-04-13T10:19:03.523Z,101150
2023-04-13T10:20:02.143Z,101150
2023-04-13T10:21:01.281Z,101150
2023-04-13T10:22:03.161Z,101160
2023-04-13T10:23:02.318Z,101150
2023-04-13T10:24:02.253Z,101150
2023-04-13T10:25:00.647Z,101150
2023-04-13T10:26:00.868Z,101150
2023-04-13T10:27:09.517Z,101160
2023-04-13T10:28:00.773Z,101160
2023-04-13T10:29:01.239Z,101150
2023-04-13T10:30:10.434Z,101140
2023-04-13T10:31:00.520Z,101140
2023-04-13T10:32:00.643Z,101140
2023-04-13T10:33:01.466Z,101140
2023-04-13T10:34:00.894Z,101150
2023-04-13T10:35:07.644Z,101150
2023-04-13T10:36:00.582Z,101160
2023-04-13T10:37:00.763Z,101150
2023-04-13T10:38:00.515Z,101140
2023-04-13T10:39:00.953Z,101130
2023-04-13T10:40:03.088Z,101150
2023-04-13T10:41:00.534Z,101150
2023-04-13T10:42:00.527Z,101150
2023-04-13T10:43:00.547Z,101150
2023-04-13T10:44:01.480Z,101140
2023-04-13T10:45:00.528Z,101140
2023-04-13T10:46:08.612Z,101130
2023-04-13T10:47:00.591Z,101120
2023-04-13T10:48:00.798Z,101120
2023-04-13T10:49:01.943Z,101120
2023-04-13T10:50:00.527Z,101120
2023-04-13T10:51:00.838Z,101110
2023-04-13T10:52:00.494Z,101110
2023-04-13T10:53:02.546Z,101120
2023-04-13T10:54:03.905Z,101110
2023-04-13T10:55:00.914Z,101110
2023-04-13T10:56:00.540Z,101110
2023-04-13T10:57:01.733Z,101110
2023-04-13T10:58:01.268Z,101110
2023-04-13T10:59:00.929Z,101110
2023-04-13T11:00:00.531Z,101100
2023-04-13T11:01:00.554Z,101100
2023-04-13T11:02:04.183Z,101100
2023-04-13T11:03:00.660Z,101100
2023-04-13T11:04:06.060Z,101100
2023-04-13T11:05:00.629Z,101090
2023-04-13T11:06:00.592Z,101090
2023-04-13T11:07:00.541Z,101090
2023-04-13T11:08:00.543Z,101090
2023-04-13T11:09:00.689Z,101090
2023-04-13T11:10:06.677Z,101080
2023-04-13T11:11:00.552Z,101080
2023-04-13T11:12:00.514Z,101090
2023-04-13T11:13:00.498Z,101080
2023-04-13T11:14:00.678Z,101080
2023-04-13T11:15:00.608Z,101080
2023-04-13T11:16:01.146Z,101080
2023-04-13T11:17:00.968Z,101080
2023-04-13T11:18:00.562Z,101070
2023-04-13T11:19:02.225Z,101070
2023-04-13T11:20:00.555Z,101080
2023-04-13T11:21:00.588Z,101070
2023-04-13T11:22:00.518Z,101070
2023-04-13T11:23:01.052Z,101070
2023-04-13T11:24:00.504Z,101070
2023-04-13T11:25:08.139Z,101080
2023-04-13T11:26:00.536Z,101070
2023-04-13T11:27:00.523Z,101070
2023-04-13T11:28:01.174Z,101070
2023-04-13T11:29:01.580Z,101070
2023-04-13T11:30:02.031Z,101060
2023-04-13T11:31:00.538Z,101070
2023-04-13T11:32:00.742Z,101060
2023-04-13T11:33:00.605Z,101070
2023-04-13T11:34:00.726Z,101060
2023-04-13T11:35:09.047Z,101060
2023-04-13T11:36:00.968Z,101060
2023-04-13T11:37:01.201Z,101050
2023-04-13T11:38:00.525Z,101060
2023-04-13T11:39:00.825Z,101050
2023-04-13T11:40:00.627Z,101060
2023-04-13T11:41:14.301Z,101050
2023-04-13T11:42:07.724Z,101050
2023-04-13T11:43:00.579Z,101060
2023-04-13T11:44:00.578Z,101040
2023-04-13T11:45:00.524Z,101060
2023-04-13T11:46:00.558Z,101060
2023-04-13T11:47:04.192Z,101060
2023-04-13T11:48:00.771Z,101070
2023-04-13T11:49:00.815Z,101070
2023-04-13T11:50:01.020Z,101070
2023-04-13T11:51:00.525Z,101070
2023-04-13T11:52:01.307Z,101060
2023-04-13T11:53:01.967Z,101070
2023-04-13T11:54:00.882Z,101060
2023-04-13T11:55:14.867Z,101070
2023-04-13T11:56:00.910Z,101060
2023-04-13T11:57:00.737Z,101070
2023-04-13T11:58:05.576Z,101050
2023-04-13T11:59:00.772Z,101070
2023-04-13T12:00:00.611Z,101070
2023-04-13T12:01:07.771Z,101060
2023-04-13T12:02:03.157Z,101070
2023-04-13T12:03:03.051Z,101070
2023-04-13T12:04:08.447Z,101050
2023-04-13T12:05:00.754Z,101060
2023-04-13T12:06:00.812Z,101060
2023-04-13T12:07:01.358Z,101050
2023-04-13T12:08:01.330Z,101040
2023-04-13T12:09:09.329Z,101040
2023-04-13T12:10:05.414Z,101050
2023-04-13T12:12:34.583Z,101050
2023-04-13T12:13:17.242Z,101050
2023-04-13T12:14:10.130Z,101060
2023-04-13T12:16:08.536Z,101050
2023-04-13T12:17:08.038Z,101060
2023-04-13T12:18:03.811Z,101060
2023-04-13T12:19:09.562Z,101060
2023-04-13T12:20:01.200Z,101060
2023-04-13T12:21:01.239Z,101060
2023-04-13T12:22:00.776Z,101050
2023-04-13T12:23:11.411Z,101060
2023-04-13T12:24:01.843Z,101060
2023-04-13T12:25:01.954Z,101060
2023-04-13T12:26:13.059Z,101060
2023-04-13T12:28:02.192Z,101060
2023-04-13T12:29:02.403Z,101070
2023-04-13T12:30:01.354Z,101060
2023-04-13T12:31:01.733Z,101030
2023-04-13T12:32:00.723Z,101050
2023-04-13T12:33:00.543Z,101050